Time;durP1;ratioP1;P1;durP2;ratioP2;P2;SDS_P1;SDS_P2;PMS_P1;PMS_P2;Temp;Humidity;BMP_temperature;BMP_pressure;BME280_temperature;BME280_humidity;BME280_pressure;Samples;Min_cycle;Max_cycle;Signal;HPM_P1;HPM_P2
2022/04/02 00:01:40;;;;;;;0.20;0.20;;;;;;;21.45;28.83;97642.03;5130313;28;20039;-60
2022/04/02 00:04:07;;;;;;;0.43;0.30;;;;;;;21.45;29.02;97644.81;5130201;28;20054;-60
2022/04/02 00:06:33;;;;;;;0.20;0.20;;;;;;;21.46;29.10;97631.69;5130253;28;20059;-61
2022/04/02 00:08:59;;;;;;;0.20;0.20;;;;;;;21.45;28.87;97642.03;5130327;28;20045;-60
2022/04/02 00:11:24;;;;;;;0.30;0.30;;;;;;;21.43;28.95;97642.44;5129957;28;20047;-61
2022/04/02 00:13:50;;;;;;;0.25;0.25;;;;;;;21.43;28.98;97641.63;5130190;28;20035;-60
2022/04/02 00:16:15;;;;;;;0.28;0.20;;;;;;;21.41;28.75;97639.28;5130110;28;20047;-60
2022/04/02 00:18:42;;;;;;;0.45;0.22;;;;;;;21.41;28.89;97644.84;5129946;28;20047;-61
2022/04/02 00:21:08;;;;;;;0.15;0.15;;;;;;;21.39;28.90;97632.56;5130037;28;20070;-60
2022/04/02 00:23:39;;;;;;;0.43;0.40;;;;;;;21.40;28.84;97650.84;5130181;28;20079;-61
2022/04/02 00:26:06;;;;;;;0.13;0.10;;;;;;;21.39;28.74;97643.69;5129957;28;20531;-60
2022/04/02 00:28:32;;;;;;;0.30;0.30;;;;;;;21.39;29.18;97643.69;5129886;28;20564;-60
2022/04/02 00:30:57;;;;;;;0.28;0.22;;;;;;;21.39;29.07;97638.13;5129543;28;20051;-58
2022/04/02 00:33:23;;;;;;;0.52;0.30;;;;;;;21.38;28.85;97637.34;5128807;28;20040;-58
2022/04/02 00:35:48;;;;;;;0.22;0.20;;;;;;;21.61;28.70;97638.56;5129663;28;20050;-60
2022/04/02 00:38:14;;;;;;;0.30;0.30;;;;;;;22.41;27.84;97643.09;5129713;28;20039;-60
2022/04/02 00:40:42;;;;;;;0.30;0.28;;;;;;;23.29;26.47;97638.84;5129608;28;20047;-61
2022/04/02 00:43:29;;;;;;;0.50;0.30;;;;;;;23.70;25.97;97643.84;5129639;28;20050;-61
2022/04/02 00:45:56;;;;;;;0.30;0.20;;;;;;;23.25;26.35;97636.13;5129459;28;20138;-61
2022/04/02 00:48:23;;;;;;;0.30;0.30;;;;;;;22.85;27.11;97651.34;5129795;28;20050;-60
2022/04/02 00:50:53;;;;;;;0.20;0.20;;;;;;;22.52;27.30;97646.47;5129485;28;20515;-60
2022/04/02 00:53:20;;;;;;;0.32;0.30;;;;;;;22.31;27.55;97646.09;5129665;28;20388;-60
2022/04/02 00:55:46;;;;;;;0.43;0.28;;;;;;;22.13;28.13;97643.63;5129419;28;20071;-60
2022/04/02 00:58:11;;;;;;;0.20;0.20;;;;;;;22.00;28.27;97643.44;5131382;27;20116;-60
2022/04/02 01:00:40;;;;;;;0.20;0.10;;;;;;;21.89;28.35;97649.22;5133191;28;20043;-61
2022/04/02 01:03:07;;;;;;;0.20;0.20;;;;;;;21.82;28.62;97648.56;5133062;28;20042;-60
2022/04/02 01:05:34;;;;;;;0.20;0.20;;;;;;;21.75;28.32;97652.25;5132810;28;20062;-60
2022/04/02 01:08:05;;;;;;;0.40;0.30;;;;;;;21.70;28.55;97647.94;5133143;28;20079;-60
2022/04/02 01:10:35;;;;;;;0.25;0.20;;;;;;;21.63;28.77;97636.94;5132914;28;20051;-60
2022/04/02 01:13:01;;;;;;;0.20;0.20;;;;;;;21.62;28.85;97634.59;5132893;28;20064;-60
2022/04/02 01:15:26;;;;;;;0.10;0.10;;;;;;;21.59;28.88;97644.56;5132803;28;20051;-60
2022/04/02 01:17:52;;;;;;;0.20;0.17;;;;;;;21.57;28.63;97643.41;5132702;28;20039;-60
2022/04/02 01:20:18;;;;;;;0.22;0.22;;;;;;;21.56;28.81;97647.41;5132971;28;20935;-60
2022/04/02 01:22:45;;;;;;;0.20;0.10;;;;;;;21.54;28.85;97644.25;5132813;28;20490;-60
2022/04/02 01:25:11;;;;;;;0.30;0.20;;;;;;;21.54;28.54;97647.03;5132678;28;20050;-60
2022/04/02 01:27:37;;;;;;;0.50;0.40;;;;;;;21.52;28.72;97655.03;5132498;28;20043;-60
2022/04/02 01:30:04;;;;;;;0.30;0.30;;;;;;;21.50;28.67;97655.44;5132486;28;20096;-60
2022/04/02 01:32:29;;;;;;;0.10;0.10;;;;;;;21.47;28.51;97650.72;5132415;28;20078;-61
2022/04/02 01:34:55;;;;;;;0.20;0.20;;;;;;;21.48;28.44;97670.97;5132421;28;20043;-61
2022/04/02 01:37:20;;;;;;;0.17;0.17;;;;;;;21.48;28.58;97665.41;5132350;28;20043;-60
2022/04/02 01:39:45;;;;;;;0.20;0.20;;;;;;;21.46;28.72;97653.94;5130345;27;20062;-60
2022/04/02 01:42:12;;;;;;;0.20;0.17;;;;;;;21.47;28.37;97666.63;5132683;28;20027;-60
2022/04/02 01:44:38;;;;;;;0.10;0.10;;;;;;;21.45;28.56;97664.28;5132403;28;20130;-60
2022/04/02 01:47:03;;;;;;;0.20;0.20;;;;;;;21.43;28.45;97664.69;5132171;28;20470;-60
2022/04/02 01:49:29;;;;;;;0.10;0.10;;;;;;;21.43;28.60;97670.25;5132183;28;20045;-61
2022/04/02 01:51:55;;;;;;;0.20;0.20;;;;;;;21.42;28.75;97671.44;5132254;28;20507;-60
2022/04/02 01:54:20;;;;;;;0.20;0.20;;;;;;;21.42;28.63;97665.88;5132017;28;20139;-60
2022/04/02 01:56:49;;;;;;;0.20;0.20;;;;;;;21.40;28.65;97673.88;5132350;28;20039;-61
2022/04/02 01:59:14;;;;;;;0.25;0.25;;;;;;;21.40;28.50;97668.31;5128146;28;20039;-60
2022/04/02 02:01:40;;;;;;;0.17;0.13;;;;;;;21.38;28.55;97670.72;5132106;28;20072;-60
2022/04/02 02:04:06;;;;;;;0.35;0.28;;;;;;;21.41;28.61;97669.09;5132061;28;20138;-60
2022/04/02 02:06:37;;;;;;;0.10;0.10;;;;;;;21.38;28.57;97675.50;5112630;28;20118;-60
2022/04/02 02:09:02;;;;;;;0.13;0.13;;;;;;;21.39;28.70;97682.63;5110449;28;20039;-60
2022/04/02 02:11:28;;;;;;;0.25;0.20;;;;;;;21.38;28.32;97669.94;5111068;28;20516;-60
2022/04/02 02:13:53;;;;;;;0.30;0.30;;;;;;;21.39;28.34;97672.28;5111331;28;20055;-61
2022/04/02 02:16:19;;;;;;;0.20;0.20;;;;;;;21.37;28.21;97669.16;5111396;28;20522;-60
2022/04/02 02:18:44;;;;;;;0.20;0.20;;;;;;;21.37;28.24;97658.03;5111345;28;20035;-60
2022/04/02 02:21:10;;;;;;;0.55;0.30;;;;;;;21.37;28.34;97657.25;5111400;28;20043;-60
2022/04/02 02:23:35;;;;;;;0.20;0.20;;;;;;;21.39;28.40;97654.81;5111319;28;20040;-61
2022/04/02 02:26:01;;;;;;;0.20;0.20;;;;;;;21.37;28.39;97662.81;5111038;28;20403;-60
2022/04/02 02:28:26;;;;;;;0.10;0.10;;;;;;;21.37;28.49;97657.25;5111176;28;20124;-61
2022/04/02 02:30:52;;;;;;;0.20;0.20;;;;;;;21.37;28.47;97657.25;5110987;28;20044;-61
2022/04/02 02:36:02;;;;;;;0.20;0.20;;;;;;;21.34;28.39;97664.41;5110986;28;20112;-61
2022/04/02 02:38:28;;;;;;;0.20;0.20;;;;;;;21.35;28.33;97674.34;5110937;28;20559;-60
2022/04/02 02:40:53;;;;;;;0.15;0.15;;;;;;;21.33;28.44;97659.28;5110719;28;20523;-61
2022/04/02 02:43:19;;;;;;;0.20;0.20;;;;;;;21.35;28.21;97677.13;5110198;28;20047;-61
2022/04/02 02:45:45;;;;;;;0.30;0.30;;;;;;;21.35;28.25;97665.19;5110878;28;20047;-61
2022/04/02 02:48:11;;;;;;;0.30;0.30;;;;;;;21.36;28.47;97683.47;5110783;28;20050;-61
2022/04/02 02:50:37;;;;;;;0.52;0.30;;;;;;;21.32;28.44;97689.09;5110708;28;20051;-60
2022/04/02 02:53:02;;;;;;;0.47;0.40;;;;;;;21.34;28.29;97681.09;5110647;28;20054;-60
2022/04/02 02:55:28;;;;;;;0.17;0.17;;;;;;;21.33;28.42;97673.19;5110634;28;20177;-60
2022/04/02 02:57:54;;;;;;;0.40;0.40;;;;;;;21.32;28.69;97686.31;5110695;28;20040;-61
2022/04/02 03:00:20;;;;;;;0.30;0.30;;;;;;;21.33;28.44;97689.88;5110642;28;20050;-61
2022/04/02 03:02:46;;;;;;;0.25;0.25;;;;;;;21.33;28.60;97689.88;5110647;28;20044;-60
2022/04/02 03:05:14;;;;;;;0.30;0.30;;;;;;;21.31;28.69;97687.53;5110551;28;20044;-60
2022/04/02 03:07:48;;;;;;;0.30;0.30;;;;;;;21.31;28.37;97692.31;5110610;28;20051;-60
2022/04/02 03:10:22;;;;;;;0.30;0.30;;;;;;;21.29;28.59;97689.94;5110597;28;20055;-60
2022/04/02 03:12:49;;;;;;;0.30;0.30;;;;;;;21.87;27.69;97693.41;5110558;28;20035;-60
2022/04/02 03:15:20;;;;;;;0.30;0.30;;;;;;;22.98;26.34;97686.53;5110337;28;20077;-61
2022/04/02 03:17:47;;;;;;;0.60;0.43;;;;;;;23.63;25.41;97688.66;5110278;28;20065;-61
2022/04/02 03:20:14;;;;;;;0.40;0.40;;;;;;;23.21;25.77;97693.22;5110081;28;20046;-60
2022/04/02 03:22:43;;;;;;;0.82;0.50;;;;;;;22.80;26.35;97700.84;5106879;28;20173;-60
2022/04/02 03:25:10;;;;;;;0.60;0.47;;;;;;;22.47;26.73;97694.31;5094261;28;20123;-61
2022/04/02 03:27:37;;;;;;;0.70;0.40;;;;;;;22.25;27.16;97695.94;5110360;28;20126;-60
2022/04/02 03:30:05;;;;;;;0.98;0.38;;;;;;;22.06;27.42;97707.78;5110163;28;20047;-60
2022/04/02 03:32:31;;;;;;;1.33;0.45;;;;;;;21.91;27.44;97696.88;5110095;28;20035;-60
2022/04/02 03:34:57;;;;;;;0.95;0.40;;;;;;;21.80;27.39;97698.28;5109949;28;20055;-60
2022/04/02 03:37:24;;;;;;;0.43;0.40;;;;;;;21.70;27.65;97691.69;5110099;28;20104;-60
2022/04/02 03:39:51;;;;;;;0.30;0.30;;;;;;;21.65;27.68;97692.97;5110051;28;20048;-61
2022/04/02 03:42:16;;;;;;;0.63;0.50;;;;;;;21.60;27.81;97695.44;5110068;28;20422;-61
2022/04/02 03:44:42;;;;;;;1.13;0.50;;;;;;;21.58;28.01;97701.44;5110017;28;20559;-60
2022/04/02 03:47:10;;;;;;;0.50;0.40;;;;;;;21.55;27.98;97715.38;5110035;28;20055;-61
2022/04/02 03:49:46;;;;;;;0.60;0.50;;;;;;;21.49;27.88;97711.50;5109688;28;20077;-61
2022/04/02 03:52:13;;;;;;;2.45;0.60;;;;;;;21.49;28.03;97708.72;5109989;28;20044;-61
2022/04/02 03:54:39;;;;;;;0.95;0.60;;;;;;;21.47;27.86;97711.91;5093210;28;20055;-60
2022/04/02 03:57:09;;;;;;;0.70;0.50;;;;;;;21.43;27.77;97714.75;5109857;28;20702;-60
2022/04/02 03:59:35;;;;;;;1.05;0.50;;;;;;;21.43;27.88;97719.50;5109614;28;20070;-61
2022/04/02 04:02:01;;;;;;;0.98;0.40;;;;;;;21.41;27.88;97728.28;5109297;28;20100;-61
2022/04/02 04:04:27;;;;;;;0.68;0.55;;;;;;;21.39;27.95;97725.16;5109773;28;20457;-60
2022/04/02 04:06:53;;;;;;;0.45;0.45;;;;;;;21.40;27.86;97725.94;5109639;28;20507;-61
2022/04/02 04:09:19;;;;;;;0.30;0.30;;;;;;;21.38;28.04;97753.38;5109616;28;20040;-60
2022/04/02 04:11:45;;;;;;;0.50;0.50;;;;;;;21.38;28.22;97737.47;5109448;28;20051;-61
2022/04/02 04:14:10;;;;;;;1.15;0.60;;;;;;;21.38;28.02;97725.56;5109666;28;20043;-60
2022/04/02 04:16:36;;;;;;;0.25;0.25;;;;;;;21.37;28.16;97735.13;5109613;28;20569;-61
2022/04/02 04:19:02;;;;;;;0.45;0.38;;;;;;;21.37;28.00;97747.03;5109526;28;20052;-60
2022/04/02 04:21:28;;;;;;;0.68;0.50;;;;;;;21.36;27.81;97744.66;5109516;28;20052;-60
2022/04/02 04:23:54;;;;;;;0.60;0.50;;;;;;;21.33;27.89;97735.16;5109664;28;20051;-60
2022/04/02 04:26:19;;;;;;;0.80;0.60;;;;;;;21.35;27.93;97743.88;5109468;28;20051;-61
2022/04/02 04:28:45;;;;;;;0.47;0.40;;;;;;;21.68;27.44;97742.19;5109431;28;20051;-60
2022/04/02 04:31:10;;;;;;;0.60;0.50;;;;;;;22.47;26.66;97744.47;5109324;28;20048;-60
2022/04/02 04:33:39;;;;;;;1.50;0.50;;;;;;;23.15;25.79;97742.38;5111935;28;20092;-61
2022/04/02 04:36:05;;;;;;;0.40;0.40;;;;;;;23.83;24.83;97750.03;5112997;28;20058;-61
2022/04/02 04:38:30;;;;;;;0.68;0.50;;;;;;;23.45;25.18;97758.84;5112998;28;20044;-61
2022/04/02 04:40:56;;;;;;;0.40;0.40;;;;;;;22.99;25.82;97751.44;5112767;28;20440;-61
2022/04/02 04:43:22;;;;;;;0.40;0.40;;;;;;;22.64;26.08;97764.06;5112959;28;20058;-60
2022/04/02 04:45:47;;;;;;;0.40;0.40;;;;;;;22.38;26.41;97766.53;5112630;28;20050;-60
2022/04/02 04:48:15;;;;;;;0.40;0.40;;;;;;;22.17;26.78;97766.91;5112732;28;20096;-61
2022/04/02 04:50:41;;;;;;;0.50;0.50;;;;;;;21.98;26.88;97771.94;5112703;28;20051;-60
2022/04/02 04:53:06;;;;;;;0.40;0.40;;;;;;;21.88;27.33;97780.47;5112931;28;20480;-60
2022/04/02 04:55:32;;;;;;;0.40;0.30;;;;;;;21.79;27.41;97774.63;5112559;28;20055;-61
2022/04/02 04:57:57;;;;;;;0.40;0.40;;;;;;;21.72;27.31;97772.75;5112474;28;20055;-61
2022/04/02 05:00:23;;;;;;;0.30;0.30;;;;;;;21.67;27.67;97773.22;5112434;28;20036;-60
2022/04/02 05:02:48;;;;;;;0.52;0.50;;;;;;;21.61;27.54;97772.91;5112554;28;20447;-61
2022/04/02 05:05:14;;;;;;;0.95;0.50;;;;;;;21.59;27.64;97782.88;5112607;28;20039;-61
2022/04/02 05:07:41;;;;;;;0.55;0.40;;;;;;;21.55;27.65;97787.72;5112605;28;20461;-60
2022/04/02 05:10:09;;;;;;;0.50;0.50;;;;;;;21.53;27.82;97801.25;5112267;28;20051;-61
2022/04/02 05:12:36;;;;;;;0.50;0.43;;;;;;;21.51;27.60;97803.69;5112469;28;20150;-60
2022/04/02 05:15:03;;;;;;;0.43;0.40;;;;;;;21.47;27.86;97802.94;5112287;28;20086;-60
2022/04/02 05:17:29;;;;;;;0.50;0.50;;;;;;;21.48;27.70;97807.28;5112232;28;20455;-60
2022/04/02 05:19:54;;;;;;;0.30;0.30;;;;;;;21.46;27.76;97809.69;5112315;28;20051;-60
2022/04/02 05:22:20;;;;;;;0.52;0.38;;;;;;;21.46;28.03;97806.91;5112334;28;20124;-61
2022/04/02 05:24:45;;;;;;;0.45;0.30;;;;;;;21.42;28.01;97807.72;5112183;28;20044;-61
2022/04/02 05:27:11;;;;;;;0.38;0.30;;;;;;;21.42;28.00;97810.50;5112167;28;20138;-60
2022/04/02 05:29:36;;;;;;;0.40;0.32;;;;;;;21.40;27.71;97818.50;5111861;28;20056;-60
2022/04/02 05:32:03;;;;;;;0.70;0.50;;;;;;;21.39;28.05;97816.13;5112071;28;20050;-60
2022/04/02 05:34:30;;;;;;;0.38;0.38;;;;;;;21.36;27.90;97822.53;5112047;28;20537;-61
2022/04/02 05:36:56;;;;;;;0.40;0.40;;;;;;;21.38;27.98;97825.69;5111607;28;20046;-61
2022/04/02 05:39:22;;;;;;;0.40;0.40;;;;;;;21.36;27.82;97837.25;5111939;28;20050;-60
2022/04/02 05:41:48;;;;;;;0.40;0.35;;;;;;;21.37;27.73;97844.38;5111939;28;20044;-60
2022/04/02 05:44:13;;;;;;;0.40;0.40;;;;;;;21.35;28.07;97846.75;5111936;28;20130;-60
2022/04/02 05:46:39;;;;;;;0.28;0.22;;;;;;;21.35;27.73;97854.31;5111779;28;20131;-60
2022/04/02 05:49:04;;;;;;;0.40;0.40;;;;;;;21.36;27.91;97861.47;5111820;28;20418;-61
2022/04/02 05:51:30;;;;;;;0.68;0.50;;;;;;;21.33;28.05;97853.97;5111676;28;20055;-61
2022/04/02 05:53:57;;;;;;;0.68;0.45;;;;;;;21.34;27.98;97869.44;5111716;28;20059;-61
2022/04/02 05:56:23;;;;;;;0.52;0.50;;;;;;;21.31;27.94;97867.50;5111754;28;20384;-60
2022/04/02 05:58:49;;;;;;;0.70;0.40;;;;;;;21.32;28.05;97880.19;5111515;28;20124;-61
2022/04/02 06:01:17;;;;;;;1.70;0.50;;;;;;;21.29;27.84;97879.03;5111450;28;20071;-60
2022/04/02 06:03:43;;;;;;;0.30;0.30;;;;;;;21.32;27.69;97880.97;5111489;28;20050;-60
2022/04/02 06:06:09;;;;;;;0.50;0.40;;;;;;;21.30;27.81;97885.41;5111449;28;20131;-61
2022/04/02 06:08:35;;;;;;;0.40;0.40;;;;;;;21.31;28.00;97886.97;5111408;28;20044;-60
2022/04/02 06:11:06;;;;;;;0.60;0.40;;;;;;;21.32;27.99;97899.66;5111353;28;20096;-60
2022/04/02 06:13:32;;;;;;;0.45;0.40;;;;;;;21.31;27.69;97918.34;5111452;28;20411;-60
2022/04/02 06:15:57;;;;;;;0.38;0.30;;;;;;;21.30;28.23;97922.34;5111129;28;20040;-60
2022/04/02 06:18:23;;;;;;;0.40;0.40;;;;;;;21.30;27.95;97925.13;5111305;28;20445;-60
2022/04/02 06:20:49;;;;;;;0.50;0.40;;;;;;;21.30;27.75;97935.44;5111117;28;20043;-61
2022/04/02 06:23:15;;;;;;;0.57;0.40;;;;;;;21.28;27.94;97938.63;5111307;28;20399;-60
2022/04/02 06:25:41;;;;;;;0.40;0.40;;;;;;;21.28;27.98;97938.63;5111251;28;20048;-60
2022/04/02 06:28:07;;;;;;;0.47;0.40;;;;;;;21.27;27.82;97953.69;5111200;28;20040;-61
2022/04/02 06:30:33;;;;;;;0.32;0.32;;;;;;;21.25;27.98;97949.78;5110913;28;20154;-61
2022/04/02 06:33:00;;;;;;;0.40;0.38;;;;;;;21.26;27.92;97943.00;5111069;28;20134;-60
2022/04/02 06:35:27;;;;;;;0.40;0.30;;;;;;;21.26;27.87;97956.91;5111105;28;20061;-60
2022/04/02 06:37:54;;;;;;;0.30;0.30;;;;;;;21.25;28.01;97956.13;5107002;28;20043;-61
2022/04/02 06:40:21;;;;;;;0.40;0.30;;;;;;;21.24;27.96;97954.53;5110897;28;20051;-61
2022/04/02 06:42:46;;;;;;;0.20;0.20;;;;;;;21.23;28.13;97960.53;5110657;28;20073;-60
2022/04/02 06:45:13;;;;;;;0.60;0.40;;;;;;;21.24;27.97;97968.44;5110892;28;20039;-60
2022/04/02 06:47:40;;;;;;;0.32;0.30;;;;;;;21.24;28.06;97971.22;5110131;28;20552;-60
2022/04/02 06:50:08;;;;;;;0.40;0.30;;;;;;;21.22;28.13;97979.19;5131112;28;20039;-60
2022/04/02 06:52:34;;;;;;;0.22;0.22;;;;;;;21.23;28.07;97980.78;5131276;28;20080;-60
2022/04/02 06:55:00;;;;;;;0.52;0.40;;;;;;;21.22;27.94;97975.59;5130656;27;20035;-61
2022/04/02 06:57:25;;;;;;;0.43;0.30;;;;;;;21.23;27.73;97982.78;5131306;28;20075;-60
2022/04/02 06:59:51;;;;;;;0.50;0.40;;;;;;;21.22;27.86;97995.88;5131021;28;20191;-60
2022/04/02 07:02:16;;;;;;;0.20;0.20;;;;;;;21.24;27.68;97993.47;5131010;28;20039;-60
2022/04/02 07:04:42;;;;;;;0.35;0.35;;;;;;;21.23;28.08;97997.47;5131122;28;20051;-60
2022/04/02 07:07:08;;;;;;;0.50;0.40;;;;;;;21.24;28.09;98003.81;5130888;28;20181;-61
2022/04/02 07:09:34;;;;;;;0.40;0.32;;;;;;;21.23;27.95;98014.16;5130912;28;20451;-60
2022/04/02 07:12:00;;;;;;;0.40;0.30;;;;;;;21.22;28.01;98015.34;5131060;28;20039;-60
2022/04/02 07:14:25;;;;;;;0.28;0.25;;;;;;;21.23;27.89;98018.91;5130867;28;20049;-60
2022/04/02 07:16:51;;;;;;;0.30;0.30;;;;;;;21.28;27.71;98035.16;5131012;28;20126;-61
2022/04/02 07:19:24;;;;;;;0.50;0.32;;;;;;;21.79;27.34;98025.94;5131100;28;20031;-61
2022/04/02 07:21:52;;;;;;;0.30;0.30;;;;;;;22.64;26.09;98018.44;5130722;28;20039;-61
2022/04/02 07:24:18;;;;;;;0.35;0.32;;;;;;;23.39;25.15;98010.91;5130860;28;20131;-61
2022/04/02 07:26:47;;;;;;;0.30;0.30;;;;;;;23.72;24.75;98035.03;5130999;28;20043;-60
2022/04/02 07:29:14;;;;;;;0.20;0.20;;;;;;;23.23;25.08;98037.47;5130825;28;20047;-60
2022/04/02 07:31:40;;;;;;;0.35;0.35;;;;;;;22.80;25.66;98042.91;5130712;28;20051;-60
2022/04/02 07:34:06;;;;;;;0.50;0.40;;;;;;;22.45;26.16;98039.44;5130708;28;20114;-60
2022/04/02 07:36:53;;;;;;;0.20;0.20;;;;;;;22.17;26.43;98042.59;5130773;28;20130;-60
2022/04/02 07:39:50;;;;;;;0.20;0.20;;;;;;;21.96;26.61;98047.19;5127887;28;20043;-60
2022/04/02 07:42:21;;;;;;;0.30;0.30;;;;;;;21.83;27.14;98054.50;5010770;28;20041;-61
2022/04/02 07:45:08;;;;;;;0.20;0.20;;;;;;;21.71;27.28;98043.88;5027158;28;20091;-60
2022/04/02 07:47:38;;;;;;;0.30;0.30;;;;;;;21.63;27.23;98056.28;5027353;28;20045;-60
2022/04/02 07:50:13;;;;;;;0.20;0.20;;;;;;;21.55;27.43;98063.13;5027165;28;20058;-60
2022/04/02 07:52:43;;;;;;;0.20;0.20;;;;;;;21.53;27.37;98066.34;5027041;28;20559;-60
2022/04/02 07:55:10;;;;;;;0.38;0.30;;;;;;;21.50;27.44;98071.91;5026982;28;20092;-60
2022/04/02 07:57:44;;;;;;;0.20;0.20;;;;;;;21.47;27.51;98079.09;5027235;28;20077;-60
2022/04/02 08:00:12;;;;;;;0.22;0.20;;;;;;;21.46;27.63;98076.75;5026906;28;20052;-60
2022/04/02 08:02:43;;;;;;;0.30;0.30;;;;;;;21.43;27.67;98078.34;5026920;28;20096;-60
2022/04/02 08:05:11;;;;;;;0.40;0.38;;;;;;;21.39;27.70;98086.72;5026999;28;20560;-60
2022/04/02 08:07:39;;;;;;;0.40;0.30;;;;;;;21.39;27.70;98088.72;5027943;28;20045;-60
2022/04/02 08:10:10;;;;;;;0.20;0.20;;;;;;;21.36;27.47;98089.53;5030245;28;20045;-60
2022/04/02 08:12:37;;;;;;;0.35;0.30;;;;;;;21.36;27.65;98098.69;5030334;28;20081;-60
2022/04/02 08:15:23;;;;;;;0.35;0.35;;;;;;;21.35;27.50;98087.94;5030138;28;20056;-60
2022/04/02 08:17:55;;;;;;;0.60;0.40;;;;;;;21.34;27.74;98092.72;5029705;28;20433;-61
2022/04/02 08:20:24;;;;;;;0.22;0.20;;;;;;;21.32;27.74;98100.69;5133559;28;20058;-60
2022/04/02 08:22:51;;;;;;;0.30;0.30;;;;;;;21.32;27.67;98100.69;5133518;28;20050;-60
2022/04/02 08:25:17;;;;;;;0.50;0.38;;;;;;;21.33;27.72;98113.41;5133581;28;20079;-60
2022/04/02 08:27:45;;;;;;;0.30;0.30;;;;;;;21.33;27.41;98102.28;5133465;28;20047;-60
2022/04/02 08:30:15;;;;;;;0.45;0.40;;;;;;;21.31;27.78;98110.25;5133224;28;20486;-60
2022/04/02 08:32:46;;;;;;;0.47;0.35;;;;;;;21.30;27.83;98119.78;5133318;28;20054;-60
2022/04/02 08:35:14;;;;;;;0.30;0.30;;;;;;;21.32;27.63;98128.50;5133426;28;20103;-60
2022/04/02 08:38:14;;;;;;;0.30;0.30;;;;;;;21.31;27.58;98137.25;5133334;28;20070;-60
2022/04/02 08:40:48;;;;;;;0.32;0.32;;;;;;;21.30;27.76;98133.69;5091024;28;20657;-61
2022/04/02 08:43:19;;;;;;;0.40;0.40;;;;;;;21.30;27.71;98144.81;5133336;28;20509;-60
2022/04/02 08:46:26;;;;;;;0.28;0.28;;;;;;;21.29;27.89;98132.13;5133140;28;20047;-60
2022/04/02 08:48:59;;;;;;;0.60;0.30;;;;;;;21.31;27.84;98145.63;5029593;28;20128;-60
2022/04/02 08:51:48;;;;;;;0.30;0.30;;;;;;;21.74;27.14;98143.25;5029646;28;20049;-60
2022/04/02 08:54:28;;;;;;;0.40;0.30;;;;;;;22.86;25.91;98150.00;5029690;28;20073;-61
2022/04/02 08:57:29;;;;;;;0.75;0.40;;;;;;;23.27;25.34;98157.38;5029628;28;20057;-61
2022/04/02 09:00:08;;;;;;;0.88;0.68;;;;;;;22.82;25.77;98162.38;5029573;28;20135;-60
2022/04/02 09:02:45;;;;;;;0.50;0.50;;;;;;;22.44;26.55;98157.66;5029590;28;20049;-60
2022/04/02 09:05:48;;;;;;;0.57;0.40;;;;;;;22.18;26.63;98156.38;5029502;28;20088;-61
2022/04/02 09:08:33;;;;;;;0.50;0.30;;;;;;;21.97;27.09;98162.91;5029498;28;20046;-60
2022/04/02 09:11:25;;;;;;;0.45;0.30;;;;;;;21.85;27.35;98166.19;5029438;28;20136;-60
2022/04/02 09:13:57;;;;;;;0.60;0.47;;;;;;;21.74;27.26;98165.53;5029660;28;20557;-60
2022/04/02 09:16:27;;;;;;;0.70;0.52;;;;;;;21.65;27.60;98179.13;5029433;28;20300;-60
2022/04/02 09:19:22;;;;;;;0.50;0.50;;;;;;;21.61;27.49;98172.78;5029011;28;20053;-60
2022/04/02 09:22:38;;;;;;;0.75;0.60;;;;;;;21.56;27.63;98171.22;5029504;28;20548;-60
2022/04/02 09:25:45;;;;;;;0.30;0.30;;;;;;;21.51;27.99;98184.81;4991884;28;20063;-60
2022/04/02 09:28:15;;;;;;;1.00;0.60;;;;;;;21.50;27.90;98197.13;5040999;28;20432;-60
2022/04/02 09:30:50;;;;;;;1.17;0.70;;;;;;;21.47;27.70;98198.72;5049149;28;20056;-60
2022/04/02 09:33:33;;;;;;;1.20;0.70;;;;;;;21.43;27.85;98196.00;5049236;28;20498;-60
2022/04/02 09:36:14;;;;;;;0.70;0.57;;;;;;;21.42;27.70;98205.50;5049192;28;20057;-60
2022/04/02 09:39:04;;;;;;;0.60;0.50;;;;;;;21.41;27.84;98206.72;5064362;28;20055;-60
2022/04/02 09:41:45;;;;;;;1.08;0.70;;;;;;;21.39;28.02;98217.47;5132436;28;20406;-61
2022/04/02 09:44:22;;;;;;;0.65;0.40;;;;;;;21.39;27.97;98217.47;5132293;28;20043;-61
2022/04/02 09:47:00;;;;;;;0.82;0.45;;;;;;;21.38;28.00;98226.22;5132570;28;20121;-60
2022/04/02 09:49:44;;;;;;;0.80;0.60;;;;;;;21.35;28.08;98227.81;5132145;28;20055;-61
2022/04/02 09:52:15;;;;;;;0.50;0.40;;;;;;;21.37;28.02;98222.66;5132316;28;20035;-60
2022/04/02 09:55:16;;;;;;;0.40;0.40;;;;;;;21.37;28.00;98233.00;5132211;28;20422;-60
2022/04/02 09:57:45;;;;;;;0.30;0.30;;;;;;;21.34;27.89;98229.00;5132148;28;20051;-60
2022/04/02 10:00:20;;;;;;;0.63;0.40;;;;;;;21.34;28.09;98231.78;5132111;28;20039;-60
2022/04/02 10:03:18;;;;;;;0.50;0.40;;;;;;;21.35;28.05;98244.50;5132099;28;20039;-60
2022/04/02 10:05:46;;;;;;;0.40;0.40;;;;;;;21.89;27.36;98241.34;5072130;28;20145;-60
2022/04/02 10:08:32;;;;;;;0.75;0.50;;;;;;;22.77;26.27;98247.25;5132016;28;20046;-60
2022/04/02 10:11:02;;;;;;;0.45;0.40;;;;;;;23.57;25.42;98243.81;5130411;28;20043;-61
2022/04/02 10:13:31;;;;;;;0.40;0.40;;;;;;;23.68;25.13;98245.69;5132107;28;20035;-60
2022/04/02 10:15:59;;;;;;;0.73;0.50;;;;;;;23.20;25.68;98257.91;5131936;28;20047;-60
2022/04/02 10:18:25;;;;;;;0.70;0.50;;;;;;;22.81;26.21;98253.59;5131884;28;20047;-60
2022/04/02 10:20:52;;;;;;;0.45;0.43;;;;;;;22.50;26.80;98255.50;5131941;28;20043;-60
2022/04/02 10:23:29;;;;;;;0.50;0.45;;;;;;;22.26;26.73;98262.91;5131841;28;20039;-60
2022/04/02 10:26:07;;;;;;;0.50;0.40;;;;;;;22.05;27.08;98257.50;5131996;28;20055;-60
2022/04/02 10:28:36;;;;;;;0.40;0.35;;;;;;;21.93;27.36;98256.81;5132027;28;20114;-60
2022/04/02 10:31:05;;;;;;;0.47;0.30;;;;;;;21.82;27.61;98269.25;5130776;27;20389;-60
2022/04/02 10:33:36;;;;;;;0.63;0.47;;;;;;;21.76;27.76;98271.66;5131710;28;20051;-60
2022/04/02 10:36:07;;;;;;;0.43;0.40;;;;;;;21.69;27.77;98266.94;5131577;28;20077;-60
2022/04/02 10:38:39;;;;;;;0.50;0.40;;;;;;;21.66;27.61;98264.19;5131411;28;20114;-60
2022/04/02 10:41:09;;;;;;;0.45;0.40;;;;;;;21.62;27.86;98260.63;5131346;28;20418;-60
2022/04/02 10:44:02;;;;;;;1.02;0.50;;;;;;;21.57;27.78;98277.75;5131362;28;20039;-60
2022/04/02 10:46:32;;;;;;;0.45;0.40;;;;;;;21.54;27.86;98281.34;5131481;28;20039;-61
2022/04/02 10:49:00;;;;;;;0.50;0.50;;;;;;;21.52;28.05;98292.91;5131381;28;20047;-61
2022/04/02 10:51:27;;;;;;;0.40;0.40;;;;;;;21.52;27.94;98289.31;5131163;28;20047;-61
2022/04/02 10:54:01;;;;;;;0.40;0.35;;;;;;;21.50;28.15;98284.16;5131336;28;20047;-60
2022/04/02 10:56:41;;;;;;;0.73;0.50;;;;;;;21.49;28.00;98281.78;5131382;28;20050;-60
2022/04/02 10:59:08;;;;;;;0.88;0.52;;;;;;;21.45;28.18;98281.81;5131261;28;20043;-60
2022/04/02 11:01:38;;;;;;;0.75;0.45;;;;;;;21.47;28.16;98284.19;5131289;28;20511;-60
2022/04/02 11:04:41;;;;;;;0.30;0.30;;;;;;;21.44;28.25;98285.81;5131137;28;20069;-60
2022/04/02 11:07:06;;;;;;;0.53;0.47;;;;;;;21.46;28.38;98294.53;5046282;28;20076;-60
2022/04/02 11:09:33;;;;;;;0.73;0.40;;;;;;;21.43;28.20;98298.91;5027834;28;20124;-60
2022/04/02 11:12:15;;;;;;;0.50;0.40;;;;;;;21.42;28.33;98299.31;5027894;28;20057;-60
2022/04/02 11:14:45;;;;;;;0.63;0.40;;;;;;;21.41;28.36;98292.94;5027963;28;20096;-60
2022/04/02 11:17:29;;;;;;;0.30;0.30;;;;;;;21.40;27.89;98296.94;5027605;28;20041;-60
2022/04/02 11:20:08;;;;;;;0.38;0.38;;;;;;;21.39;28.41;98300.13;5027659;28;20132;-61
2022/04/02 11:22:49;;;;;;;0.52;0.40;;;;;;;21.40;28.13;98307.28;5027454;28;20042;-60
2022/04/02 11:25:24;;;;;;;0.52;0.40;;;;;;;21.39;28.22;98308.47;5027685;28;20189;-60
2022/04/02 11:27:51;;;;;;;0.40;0.30;;;;;;;21.39;28.29;98316.81;5027607;28;20153;-60
2022/04/02 11:30:18;;;;;;;0.35;0.35;;;;;;;21.39;28.31;98322.38;5027247;28;20042;-60
2022/04/02 11:32:47;;;;;;;0.50;0.40;;;;;;;21.38;28.29;98320.78;5027587;28;20076;-60
2022/04/02 11:35:21;;;;;;;0.60;0.47;;;;;;;21.36;28.43;98324.00;5029499;28;20052;-60
2022/04/02 11:38:01;;;;;;;0.52;0.40;;;;;;;21.34;28.33;98318.00;5027416;28;20046;-60
2022/04/02 11:40:29;;;;;;;0.43;0.40;;;;;;;21.35;28.56;98321.59;5027264;28;20400;-60
2022/04/02 11:43:02;;;;;;;0.70;0.47;;;;;;;21.34;28.18;98320.78;5052593;28;20120;-61
2022/04/02 11:45:29;;;;;;;0.52;0.32;;;;;;;21.34;28.19;98328.34;5130498;28;20043;-61
2022/04/02 11:48:16;;;;;;;0.60;0.40;;;;;;;21.36;28.43;98329.56;5130471;28;20070;-60
2022/04/02 11:50:43;;;;;;;0.25;0.25;;;;;;;21.39;28.53;98337.06;5117929;27;20055;-60